createdAt,value
2022-09-26T00:00:53.490Z,12.40
2022-09-26T00:03:22.628Z,12.40
2022-09-26T00:05:49.369Z,12.30
2022-09-26T00:08:16.049Z,12.30
2022-09-26T00:10:42.818Z,12.30
2022-09-26T00:13:09.543Z,12.40
2022-09-26T00:15:36.338Z,12.30
2022-09-26T00:18:03.102Z,12.30
2022-09-26T00:20:29.819Z,12.30
2022-09-26T00:22:56.588Z,12.20
2022-09-26T00:25:23.343Z,12.20
2022-09-26T00:27:50.198Z,12.20
2022-09-26T00:30:16.931Z,12.20
2022-09-26T00:32:43.707Z,12.20
2022-09-26T00:35:10.410Z,12.20
2022-09-26T00:37:37.148Z,12.20
2022-09-26T00:40:04.216Z,12.20
2022-09-26T00:42:31.046Z,12.20
2022-09-26T00:44:57.809Z,12.20
2022-09-26T00:47:38.757Z,12.10
2022-09-26T00:50:19.146Z,12.20
2022-09-26T00:52:56.208Z,12.10
2022-09-26T00:55:24.511Z,12.10
2022-09-26T00:57:59.384Z,12.10
2022-09-26T01:00:26.119Z,12.10
2022-09-26T01:02:52.950Z,12.10
2022-09-26T01:05:20.818Z,12.00
2022-09-26T01:07:47.736Z,12.00
2022-09-26T01:10:16.183Z,12.00
2022-09-26T01:12:43.896Z,12.00
2022-09-26T01:15:11.008Z,12.00
2022-09-26T01:17:38.642Z,12.00
2022-09-26T01:20:20.916Z,12.00
2022-09-26T01:22:59.695Z,12.00
2022-09-26T01:25:55.963Z,12.00
2022-09-26T01:28:48.404Z,12.00
2022-09-26T01:31:29.066Z,12.00
2022-09-26T01:34:08.119Z,12.00
2022-09-26T01:36:49.759Z,12.00
2022-09-26T01:39:53.533Z,12.00
2022-09-26T01:42:47.920Z,12.00
2022-09-26T01:45:20.744Z,12.00
2022-09-26T01:48:05.590Z,12.00
2022-09-26T01:50:44.142Z,12.00
2022-09-26T01:53:15.281Z,12.00
2022-09-26T01:56:05.745Z,12.00
2022-09-26T01:58:39.100Z,12.00
2022-09-26T02:01:09.110Z,12.00
2022-09-26T02:03:38.356Z,12.00
2022-09-26T02:06:13.361Z,12.00
2022-09-26T02:08:53.997Z,12.10
2022-09-26T02:11:21.650Z,12.10
2022-09-26T02:13:55.928Z,12.00
2022-09-26T02:16:36.666Z,12.00
2022-09-26T02:19:07.809Z,11.90
2022-09-26T02:21:34.525Z,11.90
2022-09-26T02:24:01.572Z,11.90
2022-09-26T02:26:28.722Z,11.80
2022-09-26T02:28:56.534Z,11.70
2022-09-26T02:31:24.611Z,11.70
2022-09-26T02:33:52.316Z,11.60
2022-09-26T02:36:19.712Z,11.60
2022-09-26T02:38:46.420Z,11.50
2022-09-26T02:41:29.588Z,11.50
2022-09-26T02:44:22.050Z,11.50
2022-09-26T02:47:06.650Z,11.50
2022-09-26T02:49:46.110Z,11.50
2022-09-26T02:52:22.011Z,11.50
2022-09-26T02:55:21.640Z,11.50
2022-09-26T02:58:36.076Z,11.50
2022-09-26T03:01:36.260Z,11.50
2022-09-26T03:04:23.132Z,11.60
2022-09-26T03:06:52.668Z,11.60
2022-09-26T03:09:19.468Z,11.60
2022-09-26T03:11:46.208Z,11.60
2022-09-26T03:14:12.929Z,11.60
2022-09-26T03:16:40.909Z,11.60
2022-09-26T03:19:29.878Z,11.70
2022-09-26T03:22:00.561Z,11.70
2022-09-26T03:24:27.470Z,11.70
2022-09-26T03:26:55.316Z,11.70
2022-09-26T03:29:22.051Z,11.70
2022-09-26T03:31:50.355Z,11.80
2022-09-26T03:34:17.566Z,11.80
2022-09-26T03:36:48.144Z,11.80
2022-09-26T03:39:15.136Z,11.90
2022-09-26T03:41:42.215Z,11.80
2022-09-26T03:44:08.944Z,11.70
2022-09-26T03:46:39.881Z,11.60
2022-09-26T03:49:07.006Z,11.50
2022-09-26T03:51:33.713Z,11.30
2022-09-26T03:54:00.467Z,11.30
2022-09-26T03:56:27.329Z,11.30
2022-09-26T03:58:55.169Z,11.20
2022-09-26T04:01:22.556Z,11.20
2022-09-26T04:03:51.053Z,11.20
2022-09-26T04:06:20.062Z,11.20
2022-09-26T04:08:48.529Z,11.20
2022-09-26T04:11:17.077Z,11.20
2022-09-26T04:13:51.981Z,11.20
2022-09-26T04:16:20.825Z,11.20
2022-09-26T04:18:47.918Z,11.20
2022-09-26T04:21:14.791Z,11.10
2022-09-26T04:23:42.166Z,11.10
2022-09-26T04:26:12.881Z,11.10
2022-09-26T04:28:40.318Z,11.10
2022-09-26T04:31:07.524Z,11.10
2022-09-26T04:33:34.526Z,11.10
2022-09-26T04:36:02.321Z,11.10
2022-09-26T04:38:32.579Z,11.20
2022-09-26T04:41:04.392Z,11.20
2022-09-26T04:43:31.332Z,11.30
2022-09-26T04:45:58.234Z,11.30
2022-09-26T04:48:25.292Z,11.30
2022-09-26T04:50:52.002Z,11.30
2022-09-26T04:53:19.345Z,11.30
2022-09-26T04:55:46.674Z,11.30
2022-09-26T04:58:13.891Z,11.40
2022-09-26T05:00:45.721Z,11.40
2022-09-26T05:03:15.458Z,11.40
2022-09-26T05:05:45.218Z,11.40
2022-09-26T05:08:12.194Z,11.50
2022-09-26T05:10:38.956Z,11.50
2022-09-26T05:13:06.129Z,11.50
2022-09-26T05:15:33.560Z,11.60
2022-09-26T05:18:00.531Z,11.60
2022-09-26T05:20:31.854Z,11.60
2022-09-26T05:22:58.774Z,11.60
2022-09-26T05:25:44.727Z,11.60
2022-09-26T05:28:14.090Z,11.70
2022-09-26T05:30:41.062Z,11.70
2022-09-26T05:33:07.802Z,11.80
2022-09-26T05:35:35.299Z,11.80
2022-09-26T05:38:03.047Z,11.80
2022-09-26T05:40:49.130Z,11.90
2022-09-26T05:43:16.272Z,11.90
2022-09-26T05:45:43.172Z,12.00
2022-09-26T05:48:09.977Z,12.00
2022-09-26T05:50:40.435Z,12.00
2022-09-26T05:53:10.392Z,12.00
2022-09-26T05:55:38.328Z,12.10
2022-09-26T05:58:06.211Z,12.10
2022-09-26T06:00:33.917Z,12.20
2022-09-26T06:03:03.868Z,12.20
2022-09-26T06:05:34.871Z,12.20
2022-09-26T06:08:02.111Z,12.30
2022-09-26T06:10:32.655Z,12.30
2022-09-26T06:13:02.931Z,12.30
2022-09-26T06:15:35.789Z,12.40
2022-09-26T06:18:04.985Z,12.40
2022-09-26T06:20:36.733Z,12.40
2022-09-26T06:23:03.957Z,12.40
2022-09-26T06:25:30.685Z,12.50
2022-09-26T06:28:00.609Z,12.50
2022-09-26T06:30:27.881Z,12.50
2022-09-26T06:32:54.780Z,12.50
2022-09-26T06:35:22.049Z,12.50
2022-09-26T06:37:48.914Z,12.50
2022-09-26T06:40:16.507Z,12.50
2022-09-26T06:42:43.588Z,12.50
2022-09-26T06:45:10.868Z,12.50
2022-09-26T06:47:38.233Z,12.60
2022-09-26T06:50:08.447Z,12.60
2022-09-26T06:52:36.539Z,12.60
2022-09-26T06:55:03.709Z,12.60
2022-09-26T06:57:37.782Z,12.60
2022-09-26T07:00:07.994Z,12.70
2022-09-26T07:02:36.110Z,12.70
2022-09-26T07:05:05.769Z,12.70
2022-09-26T07:07:33.218Z,12.70
2022-09-26T07:10:00.058Z,12.70
2022-09-26T07:12:31.160Z,12.80
2022-09-26T07:14:57.967Z,12.70
2022-09-26T07:17:27.340Z,12.80
2022-09-26T07:19:54.229Z,12.80
2022-09-26T07:22:21.148Z,12.80
2022-09-26T07:24:50.678Z,12.80
2022-09-26T07:27:18.458Z,12.80
2022-09-26T07:29:48.841Z,12.80
2022-09-26T07:32:16.969Z,12.80
2022-09-26T07:34:43.942Z,12.80
2022-09-26T07:37:13.600Z,12.90
2022-09-26T07:39:40.432Z,12.90
2022-09-26T07:42:07.313Z,12.90
2022-09-26T07:45:19.627Z,12.80
2022-09-26T07:47:39.454Z,12.90
2022-09-26T07:50:16.529Z,13.00
2022-09-26T07:52:46.194Z,13.00
2022-09-26T07:55:18.217Z,13.00
2022-09-26T07:57:46.469Z,13.00
2022-09-26T08:00:17.116Z,13.00
2022-09-26T08:02:46.642Z,13.00
2022-09-26T08:05:18.382Z,13.00
2022-09-26T08:07:45.777Z,13.00
2022-09-26T08:10:22.537Z,13.00
2022-09-26T08:12:53.414Z,13.10
2022-09-26T08:15:21.268Z,13.10
2022-09-26T08:17:47.990Z,13.10
2022-09-26T08:20:14.830Z,13.20
2022-09-26T08:22:41.563Z,13.20
2022-09-26T08:25:10.024Z,13.20
2022-09-26T08:27:36.884Z,13.30
2022-09-26T08:30:04.712Z,13.40
2022-09-26T08:32:32.365Z,13.50
2022-09-26T08:35:01.238Z,13.50
2022-09-26T08:37:28.630Z,13.50
2022-09-26T08:39:55.352Z,13.50
2022-09-26T08:42:41.199Z,13.50
2022-09-26T08:46:04.901Z,13.30
2022-09-26T08:48:59.562Z,13.30
2022-09-26T08:51:37.949Z,13.30
2022-09-26T08:54:18.049Z,13.40
2022-09-26T08:56:54.447Z,13.50
2022-09-26T08:59:38.169Z,13.70
2022-09-26T09:02:13.697Z,13.90
2022-09-26T09:04:44.764Z,14.10
2022-09-26T09:07:23.622Z,13.90
2022-09-26T09:09:51.406Z,14.00
2022-09-26T09:12:37.920Z,14.20
2022-09-26T09:15:27.120Z,14.30
2022-09-26T09:18:30.393Z,14.30
2022-09-26T09:21:19.225Z,14.30
2022-09-26T09:23:57.620Z,14.20
2022-09-26T09:30:22.528Z,14.40
2022-09-26T09:33:35.877Z,14.50
2022-09-26T09:36:42.653Z,14.60
2022-09-26T09:39:15.073Z,14.70
2022-09-26T09:41:47.322Z,14.60
2022-09-26T09:44:32.476Z,14.50
2022-09-26T09:47:00.985Z,14.50
2022-09-26T09:49:27.874Z,14.50
2022-09-26T09:52:32.150Z,14.50
2022-09-26T09:55:16.789Z,14.50
2022-09-26T09:57:46.909Z,14.50
2022-09-26T10:00:25.274Z,14.60
2022-09-26T10:03:24.222Z,14.50
2022-09-26T10:05:55.592Z,14.60
2022-09-26T10:08:31.392Z,14.60
2022-09-26T10:11:24.220Z,14.60
2022-09-26T10:13:56.848Z,14.50
2022-09-26T10:16:25.097Z,14.40
2022-09-26T10:19:08.859Z,14.40
2022-09-26T10:21:39.940Z,14.50
2022-09-26T10:24:22.177Z,14.50
2022-09-26T10:26:50.206Z,14.40
2022-09-26T10:29:25.820Z,14.40
2022-09-26T10:31:56.498Z,14.50
2022-09-26T10:34:28.617Z,14.70
2022-09-26T10:36:58.598Z,14.80
2022-09-26T10:39:48.363Z,14.80
2022-09-26T10:42:23.125Z,14.70
2022-09-26T10:44:50.911Z,14.70
2022-09-26T10:47:19.589Z,14.80
2022-09-26T10:49:52.784Z,14.80
2022-09-26T10:52:25.737Z,14.90
2022-09-26T10:55:00.296Z,15.00
2022-09-26T10:57:33.507Z,15.20
2022-09-26T11:00:00.708Z,15.30
2022-09-26T11:02:27.693Z,15.50
2022-09-26T11:05:18.439Z,15.70
2022-09-26T11:07:47.835Z,15.60
2022-09-26T11:10:17.385Z,15.50
2022-09-26T11:13:24.656Z,15.30
2022-09-26T11:16:02.427Z,15.00
2022-09-26T11:18:52.685Z,15.00
2022-09-26T11:21:42.438Z,15.00
2022-09-26T11:24:16.709Z,15.10
2022-09-26T11:27:21.133Z,15.30
2022-09-26T11:30:09.295Z,15.50
2022-09-26T11:32:42.881Z,15.40
2022-09-26T11:35:22.825Z,15.40
2022-09-26T11:38:11.297Z,15.30
2022-09-26T11:40:40.846Z,15.30
2022-09-26T11:44:05.787Z,15.30
2022-09-26T11:46:39.996Z,15.30
2022-09-26T11:49:24.961Z,15.30
2022-09-26T11:52:34.037Z,15.30
2022-09-26T11:55:26.800Z,15.40
2022-09-26T11:58:17.983Z,15.40
2022-09-26T12:00:52.901Z,15.50
2022-09-26T12:03:36.275Z,15.50
2022-09-26T12:07:07.826Z,15.50
2022-09-26T12:09:47.596Z,15.50
2022-09-26T12:12:26.439Z,15.70
2022-09-26T12:15:20.331Z,15.70
2022-09-26T12:18:23.503Z,15.40
2022-09-26T12:21:12.891Z,15.30
2022-09-26T12:23:54.205Z,15.30
2022-09-26T12:26:49.736Z,15.20
2022-09-26T12:29:49.166Z,15.20
2022-09-26T12:32:27.843Z,14.90
2022-09-26T12:35:20.812Z,14.60
2022-09-26T12:38:06.195Z,14.60
2022-09-26T12:40:52.229Z,14.20
2022-09-26T12:43:40.830Z,13.90
2022-09-26T12:46:26.492Z,13.80
2022-09-26T12:49:25.877Z,13.80
2022-09-26T12:51:55.692Z,13.90
2022-09-26T12:54:30.000Z,14.00
2022-09-26T12:57:05.934Z,14.20
2022-09-26T12:59:38.936Z,14.30
2022-09-26T13:02:24.623Z,14.30
2022-09-26T13:05:27.878Z,14.40
2022-09-26T13:08:25.160Z,14.70
2022-09-26T13:11:03.965Z,14.80
2022-09-26T13:13:37.739Z,14.70
2022-09-26T13:16:05.287Z,14.70
2022-09-26T13:18:44.998Z,14.70
2022-09-26T13:21:22.028Z,14.60
2022-09-26T13:23:57.290Z,14.60
2022-09-26T13:26:37.167Z,14.60
2022-09-26T13:29:17.552Z,14.70
2022-09-26T13:31:55.433Z,14.80
2022-09-26T13:34:29.726Z,14.80
2022-09-26T13:36:59.091Z,14.80
2022-09-26T13:39:53.015Z,15.10
2022-09-26T13:42:29.365Z,15.10
2022-09-26T13:45:00.305Z,15.30
2022-09-26T13:47:49.776Z,15.50
2022-09-26T13:50:43.431Z,15.60
2022-09-26T13:53:52.552Z,15.50
2022-09-26T13:56:35.119Z,15.50
2022-09-26T13:59:19.811Z,15.40
2022-09-26T14:02:32.081Z,15.20
2022-09-26T14:04:58.859Z,15.00
2022-09-26T14:07:56.382Z,14.90
2022-09-26T14:10:36.249Z,14.80
2022-09-26T14:13:33.669Z,14.60
2022-09-26T14:16:02.384Z,14.70
2022-09-26T14:18:50.453Z,14.70
2022-09-26T14:21:33.430Z,14.60
2022-09-26T14:24:18.999Z,14.60
2022-09-26T14:26:49.141Z,14.60
2022-09-26T14:29:28.805Z,14.30
2022-09-26T14:32:01.994Z,14.30
2022-09-26T14:34:31.055Z,14.20
2022-09-26T14:37:01.487Z,14.10
2022-09-26T14:39:40.311Z,14.00
2022-09-26T14:42:27.212Z,14.00
2022-09-26T14:44:57.453Z,13.80
2022-09-26T14:47:24.834Z,13.70
2022-09-26T14:50:00.220Z,13.70
2022-09-26T14:52:27.010Z,13.70
2022-09-26T14:54:55.384Z,13.70
2022-09-26T14:57:25.193Z,13.80
2022-09-26T14:59:51.918Z,13.80
2022-09-26T15:02:34.976Z,13.70
2022-09-26T15:05:23.490Z,13.60
2022-09-26T15:07:55.038Z,13.60
2022-09-26T15:10:40.266Z,13.70
2022-09-26T15:13:22.125Z,13.70
2022-09-26T15:15:54.432Z,13.70
2022-09-26T15:18:27.356Z,13.70
2022-09-26T15:21:00.456Z,13.70
2022-09-26T15:23:34.769Z,13.80
2022-09-26T15:26:02.820Z,13.70
2022-09-26T15:28:34.513Z,13.80
2022-09-26T15:31:48.968Z,13.90
2022-09-26T15:34:22.710Z,14.50
2022-09-26T15:36:55.238Z,15.70
2022-09-26T15:39:31.333Z,16.20
2022-09-26T15:42:25.150Z,16.90
2022-09-26T15:44:58.714Z,17.30
2022-09-26T15:47:35.173Z,17.20
2022-09-26T15:50:03.940Z,16.90
2022-09-26T15:52:32.693Z,16.40
2022-09-26T15:54:59.452Z,16.60
2022-09-26T15:57:26.913Z,16.70
2022-09-26T15:59:53.658Z,16.10
2022-09-26T16:02:23.140Z,15.50
2022-09-26T16:04:51.414Z,15.00
2022-09-26T16:07:26.463Z,14.90
2022-09-26T16:09:53.681Z,14.70
2022-09-26T16:12:29.512Z,14.60
2022-09-26T16:15:08.105Z,14.30
2022-09-26T16:17:36.284Z,14.10
2022-09-26T16:20:13.890Z,14.00
2022-09-26T16:22:46.889Z,14.00
2022-09-26T16:25:29.971Z,14.00
2022-09-26T16:27:58.740Z,14.00
2022-09-26T16:30:25.616Z,14.10
2022-09-26T16:33:11.697Z,14.10
2022-09-26T16:35:44.749Z,14.00
2022-09-26T16:38:34.413Z,14.00
2022-09-26T16:41:08.472Z,14.00
2022-09-26T16:43:36.152Z,14.10
2022-09-26T16:46:07.388Z,14.10
2022-09-26T16:48:37.365Z,14.20
2022-09-26T16:51:21.259Z,14.10
2022-09-26T16:54:08.285Z,14.10
2022-09-26T16:56:42.113Z,14.00
2022-09-26T16:59:17.713Z,13.90
2022-09-26T17:01:54.586Z,13.90
2022-09-26T17:04:31.236Z,14.00
2022-09-26T17:06:59.007Z,14.00
2022-09-26T17:09:30.585Z,14.00
2022-09-26T17:12:00.933Z,14.10
2022-09-26T17:14:30.389Z,14.10
2022-09-26T17:16:58.032Z,14.10
2022-09-26T17:19:27.093Z,14.10
2022-09-26T17:21:54.926Z,14.10
2022-09-26T17:24:25.771Z,14.00
2022-09-26T17:27:02.209Z,14.00
2022-09-26T17:29:34.057Z,14.00
2022-09-26T17:32:01.177Z,14.00
2022-09-26T17:34:28.437Z,14.00
2022-09-26T17:36:56.536Z,13.90
2022-09-26T17:39:26.319Z,13.80
2022-09-26T17:41:54.078Z,13.80
2022-09-26T17:44:21.834Z,13.80
2022-09-26T17:46:52.410Z,13.80
2022-09-26T17:49:32.536Z,13.80
2022-09-26T17:52:00.995Z,13.80
2022-09-26T17:54:37.604Z,13.70
2022-09-26T17:57:08.002Z,13.70
2022-09-26T17:59:35.060Z,13.70
2022-09-26T18:02:05.728Z,13.70
2022-09-26T18:04:32.820Z,13.60
2022-09-26T18:07:01.917Z,13.70
2022-09-26T18:09:31.765Z,13.70
2022-09-26T18:12:03.120Z,13.70
2022-09-26T18:14:31.838Z,13.60
2022-09-26T18:16:59.521Z,13.60
2022-09-26T18:19:26.266Z,13.70
2022-09-26T18:21:55.390Z,13.60
2022-09-26T18:24:23.749Z,13.60
2022-09-26T18:26:50.868Z,13.50
2022-09-26T18:29:28.669Z,13.50
2022-09-26T18:31:55.471Z,13.50
2022-09-26T18:34:22.157Z,13.50
2022-09-26T18:36:49.989Z,13.50
2022-09-26T18:39:17.218Z,13.50
2022-09-26T18:41:45.181Z,13.50
2022-09-26T18:44:16.027Z,13.50
2022-09-26T18:46:44.612Z,13.50
2022-09-26T18:49:11.908Z,13.50
2022-09-26T18:51:38.602Z,13.50
2022-09-26T18:54:11.727Z,13.50
2022-09-26T18:56:57.016Z,13.40
2022-09-26T18:59:28.259Z,13.40
2022-09-26T19:01:56.274Z,13.40
2022-09-26T19:04:23.352Z,13.40
2022-09-26T19:06:58.884Z,13.30
2022-09-26T19:09:25.978Z,13.30
2022-09-26T19:11:53.299Z,13.30
2022-09-26T19:14:25.345Z,13.20
2022-09-26T19:16:52.209Z,13.20
2022-09-26T19:19:19.081Z,13.10
2022-09-26T19:22:08.184Z,13.10
2022-09-26T19:24:43.344Z,13.00
2022-09-26T19:27:16.190Z,13.00
2022-09-26T19:29:50.277Z,13.00
2022-09-26T19:32:18.261Z,13.00
2022-09-26T19:34:49.646Z,13.00
2022-09-26T19:37:16.374Z,13.00
2022-09-26T19:39:43.113Z,13.00
2022-09-26T19:42:09.903Z,12.90
2022-09-26T19:44:36.733Z,12.90
2022-09-26T19:47:04.669Z,12.90
2022-09-26T19:49:32.166Z,12.90
2022-09-26T19:52:01.221Z,12.90
2022-09-26T19:54:27.914Z,12.80
2022-09-26T19:56:54.728Z,12.90
2022-09-26T19:59:26.672Z,12.80
2022-09-26T20:01:54.270Z,12.90
2022-09-26T20:04:21.124Z,12.80
2022-09-26T20:06:47.823Z,12.80
2022-09-26T20:09:18.918Z,12.80
2022-09-26T20:11:45.838Z,12.80
2022-09-26T20:14:30.321Z,12.80
2022-09-26T20:17:00.569Z,12.80
2022-09-26T20:19:30.821Z,12.80
2022-09-26T20:21:59.857Z,12.70
2022-09-26T20:24:26.830Z,12.70
2022-09-26T20:26:53.638Z,12.70
2022-09-26T20:29:20.374Z,12.60
2022-09-26T20:31:47.434Z,12.60
2022-09-26T20:34:17.108Z,12.60
2022-09-26T20:36:49.203Z,12.50
2022-09-26T20:39:18.301Z,12.60
2022-09-26T20:41:45.103Z,12.50
2022-09-26T20:44:33.949Z,12.50
2022-09-26T20:47:01.599Z,12.50
2022-09-26T20:49:34.993Z,12.50
2022-09-26T20:52:02.767Z,12.40
2022-09-26T20:54:30.991Z,12.30
2022-09-26T20:56:58.087Z,12.30
2022-09-26T20:59:25.313Z,12.30
2022-09-26T21:01:52.629Z,12.20
2022-09-26T21:04:19.970Z,12.20
2022-09-26T21:06:46.821Z,12.30
2022-09-26T21:09:18.663Z,12.20
2022-09-26T21:11:48.124Z,12.20
2022-09-26T21:14:18.273Z,12.20
2022-09-26T21:16:48.322Z,12.10
2022-09-26T21:19:24.502Z,12.20
2022-09-26T21:21:51.605Z,12.10
2022-09-26T21:24:34.941Z,12.10
2022-09-26T21:27:01.647Z,12.00
2022-09-26T21:29:28.442Z,12.00
2022-09-26T21:31:58.470Z,12.00
2022-09-26T21:34:26.937Z,12.00
2022-09-26T21:36:55.384Z,11.90
2022-09-26T21:39:22.156Z,12.00
2022-09-26T21:41:50.696Z,11.80
2022-09-26T21:44:18.401Z,11.90
2022-09-26T21:46:45.140Z,11.90
2022-09-26T21:49:11.886Z,11.90
2022-09-26T21:51:38.691Z,11.90
2022-09-26T21:54:33.306Z,11.90
2022-09-26T21:57:10.082Z,11.80
2022-09-26T21:59:37.773Z,11.80
2022-09-26T22:02:04.702Z,11.70
2022-09-26T22:04:31.647Z,11.70
2022-09-26T22:06:58.318Z,11.70
2022-09-26T22:09:25.111Z,11.80
2022-09-26T22:11:52.202Z,11.70
2022-09-26T22:14:19.054Z,11.70
2022-09-26T22:16:45.883Z,11.60
2022-09-26T22:19:12.855Z,11.60
2022-09-26T22:21:39.639Z,11.50
2022-09-26T22:24:06.525Z,11.60
2022-09-26T22:26:33.468Z,11.60
2022-09-26T22:29:00.211Z,11.40
2022-09-26T22:31:27.016Z,11.40
2022-09-26T22:33:57.763Z,11.40
2022-09-26T22:36:24.560Z,11.40
2022-09-26T22:38:51.369Z,11.40
2022-09-26T22:41:18.123Z,11.40
2022-09-26T22:43:44.898Z,11.40
2022-09-26T22:46:12.785Z,11.30
2022-09-26T22:48:41.316Z,11.40
2022-09-26T22:51:08.341Z,11.40
2022-09-26T22:53:36.588Z,11.40
2022-09-26T22:56:06.493Z,11.30
2022-09-26T22:58:38.320Z,11.30
2022-09-26T23:01:06.549Z,11.30
2022-09-26T23:03:33.708Z,11.30
2022-09-26T23:06:00.496Z,11.30
2022-09-26T23:08:27.398Z,11.30
2022-09-26T23:10:55.410Z,11.30
2022-09-26T23:13:25.842Z,11.20
2022-09-26T23:15:52.610Z,11.30
2022-09-26T23:18:19.357Z,11.30
2022-09-26T23:20:46.185Z,11.20
2022-09-26T23:23:15.139Z,11.20
2022-09-26T23:25:46.257Z,11.30
2022-09-26T23:28:14.803Z,11.30
2022-09-26T23:30:41.829Z,11.20
2022-09-26T23:33:08.848Z,11.20
2022-09-26T23:35:35.695Z,11.30
2022-09-26T23:38:05.059Z,11.20
2022-09-26T23:40:32.587Z,11.30
2022-09-26T23:42:59.488Z,11.30
2022-09-26T23:45:27.025Z,11.30
2022-09-26T23:47:53.773Z,11.20
2022-09-26T23:50:20.695Z,11.30
2022-09-26T23:52:47.398Z,11.30
2022-09-26T23:55:14.218Z,11.30
2022-09-26T23:57:41.015Z,11.30
